createdAt,value
2019-05-26T10:40:54.217Z,73.50
2019-05-26T10:43:24.356Z,72.70
2019-05-26T10:45:53.555Z,74.80
2019-05-26T10:48:23.505Z,77.00
2019-05-26T10:50:52.534Z,78.80
2019-05-26T10:53:24.416Z,79.20
2019-05-26T10:55:55.056Z,79.80
2019-05-26T10:58:23.898Z,79.30
2019-05-26T11:00:53.395Z,78.70
2019-05-26T11:03:22.122Z,78.70
2019-05-26T11:05:51.826Z,76.90
2019-05-26T11:08:21.732Z,77.60
2019-05-26T11:10:52.032Z,74.60
2019-05-26T11:13:22.066Z,71.50
2019-05-26T11:15:50.805Z,69.10
2019-05-26T11:18:20.798Z,68.40
2019-05-26T11:20:49.576Z,68.70
2019-05-26T11:23:21.521Z,68.80
2019-05-26T11:25:51.273Z,68.90
2019-05-26T11:28:22.252Z,69.10
2019-05-26T11:30:52.612Z,68.90
2019-05-26T11:33:21.519Z,67.80
2019-05-26T11:35:50.362Z,68.40
2019-05-26T11:38:19.807Z,66.40
2019-05-26T11:40:49.999Z,67.00
2019-05-26T11:43:19.445Z,66.90
2019-05-26T11:45:48.374Z,67.30
2019-05-26T11:48:21.965Z,67.70
2019-05-26T11:50:51.727Z,67.60
2019-05-26T11:53:21.862Z,66.90
2019-05-26T11:55:51.278Z,66.00
2019-05-26T11:58:21.351Z,66.10
2019-05-26T12:00:50.197Z,66.60
2019-05-26T12:03:19.037Z,67.50
2019-05-26T12:05:48.656Z,67.40
2019-05-26T12:08:17.561Z,67.80
2019-05-26T12:10:46.872Z,67.90
2019-05-26T12:13:15.679Z,67.50
2019-05-26T12:15:45.297Z,67.60
2019-05-26T12:18:15.260Z,67.50
2019-05-26T12:20:44.003Z,68.00
2019-05-26T12:23:12.783Z,66.80
2019-05-26T12:25:41.932Z,67.90
2019-05-26T12:28:10.885Z,67.60
2019-05-26T12:30:39.630Z,68.20
2019-05-26T12:33:08.592Z,67.80
2019-05-26T12:35:41.844Z,66.60
2019-05-26T12:38:11.769Z,65.00
2019-05-26T12:40:40.493Z,62.80
2019-05-26T12:43:09.448Z,62.40
2019-05-26T12:45:38.118Z,62.80
2019-05-26T12:48:07.307Z,62.90
2019-05-26T12:50:36.219Z,63.60
2019-05-26T12:53:05.311Z,64.70
2019-05-26T12:55:34.435Z,63.80
2019-05-26T12:58:03.291Z,64.10
2019-05-26T13:00:47.642Z,64.40
2019-05-26T13:03:02.992Z,63.80
2019-05-26T13:05:33.144Z,64.30
2019-05-26T13:08:02.075Z,65.30
2019-05-26T13:10:30.848Z,65.10
2019-05-26T13:13:02.002Z,64.20
2019-05-26T13:15:31.041Z,64.20
2019-05-26T13:18:00.063Z,64.20
2019-05-26T13:20:29.620Z,64.50
2019-05-26T13:22:58.374Z,64.40
2019-05-26T13:25:27.101Z,64.70
2019-05-26T13:27:55.908Z,64.90
2019-05-26T13:30:26.714Z,65.10
2019-05-26T13:32:57.403Z,64.80
2019-05-26T13:35:26.285Z,64.90
2019-05-26T13:37:57.583Z,64.90
2019-05-26T13:40:29.454Z,65.10
2019-05-26T13:42:56.846Z,65.00
2019-05-26T13:45:27.238Z,65.60
2019-05-26T13:47:57.394Z,64.90
2019-05-26T13:50:26.820Z,65.30
2019-05-26T13:52:57.329Z,65.90
2019-05-26T13:55:26.641Z,66.00
2019-05-26T13:57:55.860Z,65.10
2019-05-26T14:00:24.799Z,64.80
2019-05-26T14:02:55.429Z,64.50
2019-05-26T14:05:24.567Z,64.90
2019-05-26T14:07:53.499Z,65.70
2019-05-26T14:10:36.773Z,66.30
2019-05-26T14:13:07.414Z,67.00
2019-05-26T14:15:40.340Z,67.00
2019-05-26T14:18:11.831Z,67.50
2019-05-26T14:20:41.939Z,67.10
2019-05-26T14:23:17.833Z,67.00
2019-05-26T14:25:49.611Z,67.20
2019-05-26T14:28:29.054Z,68.30
2019-05-26T14:30:58.006Z,68.80
2019-05-26T14:33:26.917Z,68.90
2019-05-26T14:42:47.862Z,70.20
2019-05-26T14:45:27.223Z,71.60
2019-05-26T14:47:51.450Z,73.10
2019-05-26T14:50:20.450Z,73.30
2019-05-26T14:52:49.255Z,73.50
2019-05-26T14:55:18.548Z,73.70
2019-05-26T14:57:48.366Z,74.10
2019-05-26T15:00:19.693Z,73.60
2019-05-26T15:02:49.699Z,73.70
2019-05-26T15:05:20.996Z,74.10
2019-05-26T15:07:49.683Z,74.20
2019-05-26T15:10:21.983Z,73.60
2019-05-26T15:12:49.727Z,73.00
2019-05-26T15:15:18.814Z,72.20
2019-05-26T15:17:49.882Z,72.40
2019-05-26T15:20:19.713Z,72.50
2019-05-26T15:22:49.051Z,72.10
2019-05-26T15:25:18.167Z,72.40
2019-05-26T15:27:47.010Z,72.60
2019-05-26T15:30:17.600Z,72.10
2019-05-26T15:32:46.463Z,72.00
2019-05-26T15:35:15.239Z,72.30
2019-05-26T15:37:44.001Z,72.50
2019-05-26T15:40:13.138Z,72.70
2019-05-26T15:42:42.330Z,73.00
2019-05-26T15:45:11.420Z,72.80
2019-05-26T15:47:40.417Z,73.00
2019-05-26T15:50:13.465Z,73.20
2019-05-26T15:52:41.485Z,73.50
2019-05-26T15:55:12.629Z,73.90
2019-05-26T15:57:41.160Z,74.10
2019-05-26T16:00:11.457Z,74.00
2019-05-26T16:02:41.099Z,74.20
2019-05-26T16:05:10.558Z,74.90
2019-05-26T16:07:55.263Z,76.20
2019-05-26T16:11:33.074Z,75.60
2019-05-26T16:14:27.188Z,75.90
2019-05-26T16:16:42.197Z,75.70
2019-05-26T16:19:12.253Z,76.30
2019-05-26T16:21:45.285Z,76.30
2019-05-26T16:24:33.850Z,76.90
2019-05-26T16:27:18.658Z,78.30
2019-05-26T16:29:42.034Z,79.70
2019-05-26T16:32:23.523Z,80.90
2019-05-26T16:35:01.399Z,80.50
2019-05-26T16:39:41.483Z,80.40
2019-05-26T16:40:42.875Z,80.50
2019-05-26T16:50:05.086Z,79.90
2019-05-26T16:52:54.781Z,80.20
2019-05-26T16:55:25.014Z,80.00
2019-05-26T17:16:02.998Z,78.20
2019-05-26T17:21:11.363Z,79.60
2019-05-26T17:23:43.491Z,79.70
2019-05-26T17:26:18.042Z,79.80
2019-05-26T17:28:48.912Z,79.80
2019-05-26T17:31:19.932Z,80.20
2019-05-26T17:33:54.376Z,80.70
2019-05-26T17:36:23.448Z,80.80
2019-05-26T17:38:53.244Z,81.10
2019-05-26T17:41:23.569Z,81.80
2019-05-26T17:44:08.965Z,82.50
2019-05-26T17:46:39.282Z,83.30
2019-05-26T17:49:10.722Z,83.30
2019-05-26T17:51:40.217Z,83.30
2019-05-26T17:54:09.166Z,83.60
2019-05-26T17:56:40.598Z,84.10
2019-05-26T17:59:14.527Z,84.70
2019-05-26T18:01:43.445Z,85.30
2019-05-26T18:04:16.153Z,87.20
2019-05-26T18:06:47.096Z,88.90
2019-05-26T18:09:27.106Z,90.10
2019-05-26T18:11:58.169Z,90.50
2019-05-26T18:14:34.340Z,91.00
2019-05-26T18:17:14.130Z,91.30
2019-05-26T18:22:36.101Z,91.90
2019-05-26T18:25:14.573Z,92.10
2019-05-26T18:27:58.599Z,92.20
2019-05-26T18:30:33.543Z,92.20
2019-05-26T18:33:02.556Z,92.40
2019-05-26T18:35:31.649Z,92.80
2019-05-26T18:38:00.485Z,92.60
2019-05-26T18:40:29.341Z,92.50
2019-05-26T18:42:58.266Z,92.60
2019-05-26T18:45:28.864Z,92.60
2019-05-26T18:48:02.882Z,92.50
2019-05-26T18:50:28.477Z,92.60
2019-05-26T18:52:58.909Z,92.50
2019-05-26T18:55:27.986Z,92.50
2019-05-26T18:57:57.236Z,92.60
2019-05-26T19:00:30.832Z,92.40
2019-05-26T19:02:57.875Z,92.50
2019-05-26T19:05:34.732Z,92.60
2019-05-26T19:08:10.939Z,92.70
2019-05-26T19:10:42.167Z,93.00
2019-05-26T19:13:11.146Z,93.20
2019-05-26T19:15:40.589Z,93.20
2019-05-26T19:18:19.227Z,93.60
2019-05-26T19:20:40.009Z,93.80
2019-05-26T19:23:09.118Z,94.00
2019-05-26T19:25:38.930Z,94.20
2019-05-26T19:28:07.854Z,94.50
2019-05-26T19:30:40.804Z,94.60
2019-05-26T19:33:11.242Z,94.50
2019-05-26T19:35:42.970Z,94.80
2019-05-26T19:38:11.884Z,95.00
2019-05-26T19:40:40.859Z,95.40
2019-05-26T19:43:09.783Z,95.20
2019-05-26T19:45:39.708Z,95.40
2019-05-26T19:48:11.098Z,95.60
2019-05-26T19:50:41.777Z,95.10
2019-05-26T19:53:20.225Z,95.30
2019-05-26T19:55:50.146Z,95.20
2019-05-26T19:58:19.146Z,95.20
2019-05-26T20:00:48.176Z,95.30
2019-05-26T20:03:17.506Z,95.40
2019-05-26T20:05:48.120Z,95.30
2019-05-26T20:08:17.191Z,95.20
2019-05-26T20:10:48.233Z,95.10
2019-05-26T20:13:17.850Z,95.10
2019-05-26T20:15:47.056Z,95.10
2019-05-26T20:18:16.177Z,95.20
2019-05-26T20:20:44.956Z,95.10
2019-05-26T20:23:14.122Z,95.10
2019-05-26T20:25:43.309Z,95.20
2019-05-26T20:28:12.509Z,94.90
2019-05-26T20:30:42.884Z,94.90
2019-05-26T20:33:11.804Z,94.90
2019-05-26T20:35:40.754Z,94.90
2019-05-26T20:38:10.925Z,95.00
2019-05-26T20:40:40.096Z,95.00
2019-05-26T20:43:08.966Z,94.80
2019-05-26T20:45:46.300Z,94.70
2019-05-26T20:48:15.402Z,94.90
2019-05-26T20:50:44.265Z,94.70
